createdAt,value
2018-06-29T00:01:23.667Z,50.22
2018-06-29T00:03:52.506Z,50.13
2018-06-29T00:06:21.917Z,50.22
2018-06-29T00:08:51.510Z,50.23
2018-06-29T00:11:21.006Z,50.32
2018-06-29T00:13:50.774Z,50.36
2018-06-29T00:16:20.478Z,50.04
2018-06-29T00:18:51.126Z,50.38
2018-06-29T00:21:20.457Z,50.85
2018-06-29T00:23:49.058Z,50.68
2018-06-29T00:26:18.388Z,51.07
2018-06-29T00:28:47.177Z,51.66
2018-06-29T00:31:16.629Z,52.30
2018-06-29T00:33:45.418Z,51.83
2018-06-29T00:36:14.252Z,52.29
2018-06-29T00:38:43.050Z,52.50
2018-06-29T00:41:11.828Z,52.73
2018-06-29T00:43:40.749Z,52.50
2018-06-29T00:46:09.578Z,53.33
2018-06-29T00:48:38.659Z,52.94
2018-06-29T00:51:07.557Z,52.45
2018-06-29T00:53:37.199Z,52.18
2018-06-29T00:56:06.858Z,52.23
2018-06-29T00:58:35.651Z,52.50
2018-06-29T01:01:04.487Z,51.39
2018-06-29T01:03:34.054Z,52.12
2018-06-29T01:06:04.016Z,51.55
2018-06-29T01:08:34.003Z,51.26
2018-06-29T01:11:03.073Z,51.00
2018-06-29T01:13:32.555Z,50.77
2018-06-29T01:16:02.626Z,50.42
2018-06-29T01:18:33.744Z,51.28
2018-06-29T01:21:04.320Z,50.59
2018-06-29T01:23:34.337Z,50.61
2018-06-29T01:26:03.746Z,49.70
2018-06-29T01:28:33.730Z,49.87
2018-06-29T01:31:03.694Z,50.03
2018-06-29T01:33:32.766Z,50.58
2018-06-29T01:36:02.056Z,50.24
2018-06-29T01:38:31.702Z,49.97
2018-06-29T01:41:00.730Z,50.23
2018-06-29T01:43:29.632Z,50.32
2018-06-29T01:45:58.479Z,50.63
2018-06-29T01:48:27.262Z,51.17
2018-06-29T01:50:56.636Z,51.12
2018-06-29T01:53:25.452Z,51.78
2018-06-29T01:55:55.425Z,51.08
2018-06-29T01:58:24.230Z,51.74
2018-06-29T02:00:53.035Z,51.43
2018-06-29T02:03:21.894Z,51.92
2018-06-29T02:05:51.724Z,51.95
2018-06-29T02:08:21.130Z,51.62
2018-06-29T02:10:51.334Z,51.53
2018-06-29T02:13:20.111Z,51.69
2018-06-29T02:15:49.595Z,51.97
2018-06-29T02:18:19.154Z,51.68
2018-06-29T02:20:48.800Z,50.96
2018-06-29T02:23:17.602Z,51.97
2018-06-29T02:25:46.431Z,51.53
2018-06-29T02:28:15.216Z,51.87
2018-06-29T02:30:44.538Z,51.77
2018-06-29T02:33:13.312Z,52.12
2018-06-29T02:35:42.142Z,52.25
2018-06-29T02:38:11.028Z,52.14
2018-06-29T02:40:40.131Z,52.08
2018-06-29T02:43:09.035Z,52.36
2018-06-29T02:45:38.364Z,51.48
2018-06-29T02:48:07.353Z,52.09
2018-06-29T02:50:37.321Z,51.34
2018-06-29T02:53:06.191Z,51.18
2018-06-29T02:55:36.018Z,49.72
2018-06-29T02:58:04.780Z,47.91
2018-06-29T03:00:35.018Z,44.32
2018-06-29T03:03:03.930Z,44.19
2018-06-29T03:05:33.715Z,42.46
2018-06-29T03:08:03.562Z,41.57
2018-06-29T03:10:32.591Z,40.13
2018-06-29T03:13:02.358Z,38.41
2018-06-29T03:16:03.180Z,37.13
2018-06-29T03:18:33.721Z,36.31
2018-06-29T03:21:04.643Z,36.63
2018-06-29T03:23:33.446Z,35.82
2018-06-29T03:26:03.220Z,34.90
2018-06-29T03:28:32.332Z,33.88
2018-06-29T03:31:02.863Z,34.24
2018-06-29T03:33:31.978Z,33.98
2018-06-29T03:36:00.981Z,34.17
2018-06-29T03:38:29.813Z,33.39
2018-06-29T03:40:58.596Z,33.22
2018-06-29T03:43:27.418Z,34.46
2018-06-29T03:45:57.214Z,33.38
2018-06-29T03:48:25.968Z,33.78
2018-06-29T03:50:54.722Z,32.92
2018-06-29T03:53:23.516Z,32.22
2018-06-29T03:55:53.052Z,32.85
2018-06-29T03:58:21.803Z,32.68
2018-06-29T04:00:50.601Z,32.27
2018-06-29T04:03:19.426Z,32.36
2018-06-29T04:05:49.045Z,32.21
2018-06-29T04:08:18.530Z,31.26
2018-06-29T04:10:47.460Z,32.12
2018-06-29T04:13:16.191Z,32.34
2018-06-29T04:15:46.367Z,31.81
2018-06-29T04:18:15.899Z,33.37
2018-06-29T04:20:45.123Z,33.49
2018-06-29T04:23:13.943Z,33.94
2018-06-29T04:25:42.731Z,36.41
2018-06-29T04:28:11.489Z,37.11
2018-06-29T04:30:41.034Z,39.01
2018-06-29T04:33:09.794Z,39.76
2018-06-29T04:35:38.604Z,40.69
2018-06-29T04:38:07.399Z,42.09
2018-06-29T04:40:36.162Z,42.09
2018-06-29T04:43:05.063Z,44.20
2018-06-29T04:45:35.134Z,44.79
2018-06-29T04:48:04.301Z,45.06
2018-06-29T04:50:34.303Z,45.64
2018-06-29T04:53:03.649Z,45.56
2018-06-29T04:55:34.254Z,44.61
2018-06-29T04:58:03.668Z,44.89
2018-06-29T05:00:47.083Z,45.30
2018-06-29T05:03:15.847Z,44.78
2018-06-29T05:05:45.498Z,44.37
2018-06-29T05:08:15.003Z,44.90
2018-06-29T05:10:43.817Z,45.01
2018-06-29T05:13:12.631Z,45.15
2018-06-29T05:15:42.917Z,46.00
2018-06-29T05:18:12.462Z,45.82
2018-06-29T05:20:41.247Z,45.60
2018-06-29T05:23:09.998Z,45.26
2018-06-29T05:25:38.810Z,45.55
2018-06-29T05:28:07.585Z,45.49
2018-06-29T05:30:36.886Z,45.33
2018-06-29T05:33:05.720Z,45.20
2018-06-29T05:35:34.696Z,45.91
2018-06-29T05:38:05.660Z,45.28
2018-06-29T05:40:34.535Z,44.42
2018-06-29T05:43:04.626Z,44.55
2018-06-29T05:45:35.488Z,45.54
2018-06-29T05:48:04.387Z,44.67
2018-06-29T05:50:34.462Z,44.26
2018-06-29T05:53:03.709Z,44.53
2018-06-29T05:55:36.294Z,44.63
2018-06-29T05:58:05.130Z,44.39
2018-06-29T06:00:34.330Z,44.36
2018-06-29T06:03:03.459Z,44.67
2018-06-29T06:05:36.082Z,43.61
2018-06-29T06:08:05.690Z,44.54
2018-06-29T06:10:34.810Z,44.91
2018-06-29T06:13:03.778Z,45.12
2018-06-29T06:15:34.311Z,44.99
2018-06-29T06:18:04.622Z,44.48
2018-06-29T06:20:34.498Z,43.60
2018-06-29T06:23:16.025Z,43.55
2018-06-29T06:25:45.031Z,44.37
2018-06-29T06:28:13.883Z,44.25
2018-06-29T06:30:43.973Z,44.62
2018-06-29T06:33:12.838Z,43.87
2018-06-29T06:35:41.953Z,44.24
2018-06-29T06:38:10.766Z,43.09
2018-06-29T06:40:40.511Z,43.11
2018-06-29T06:43:09.285Z,42.48
2018-06-29T06:45:38.110Z,43.24
2018-06-29T06:48:06.941Z,43.07
2018-06-29T06:50:35.679Z,42.86
2018-06-29T06:53:04.720Z,42.87
2018-06-29T06:55:34.572Z,41.80
2018-06-29T06:58:03.786Z,41.60
2018-06-29T07:00:32.931Z,41.80
2018-06-29T07:03:02.674Z,41.75
2018-06-29T07:05:32.347Z,41.64
2018-06-29T07:08:02.259Z,42.23
2018-06-29T07:10:31.309Z,41.92
2018-06-29T07:13:00.091Z,41.33
2018-06-29T07:15:29.540Z,40.86
2018-06-29T07:17:59.007Z,41.54
2018-06-29T07:20:27.798Z,41.33
2018-06-29T07:22:56.655Z,40.47
2018-06-29T07:25:25.462Z,40.25
2018-06-29T07:27:54.454Z,40.72
2018-06-29T07:30:23.844Z,41.61
2018-06-29T07:32:52.660Z,41.19
2018-06-29T07:35:21.403Z,40.30
2018-06-29T07:37:51.723Z,39.92
2018-06-29T07:40:20.500Z,39.98
2018-06-29T07:42:49.254Z,40.66
2018-06-29T07:45:18.083Z,40.58
2018-06-29T07:47:46.878Z,40.29
2018-06-29T07:50:15.767Z,39.61
2018-06-29T07:52:45.337Z,39.77
2018-06-29T07:55:14.655Z,40.43
2018-06-29T07:57:44.234Z,39.74
2018-06-29T08:00:13.098Z,40.24
2018-06-29T08:02:41.900Z,39.25
2018-06-29T08:05:11.759Z,39.22
2018-06-29T08:07:41.253Z,40.12
2018-06-29T08:10:09.977Z,39.68
2018-06-29T08:12:38.733Z,38.41
2018-06-29T08:15:08.171Z,39.34
2018-06-29T08:17:37.718Z,40.17
2018-06-29T08:20:06.658Z,38.45
2018-06-29T08:22:35.516Z,39.02
2018-06-29T08:25:13.212Z,38.60
2018-06-29T08:27:42.297Z,38.82
2018-06-29T08:30:13.056Z,38.89
2018-06-29T08:32:41.918Z,38.86
2018-06-29T08:35:12.100Z,38.17
2018-06-29T08:37:41.029Z,38.91
2018-06-29T08:40:10.674Z,37.26
2018-06-29T08:42:39.510Z,37.30
2018-06-29T08:45:09.132Z,36.92
2018-06-29T08:47:38.009Z,38.14
2018-06-29T08:50:06.822Z,36.36
2018-06-29T08:52:35.644Z,37.17
2018-06-29T08:55:05.079Z,36.33
2018-06-29T08:57:35.100Z,36.96
2018-06-29T09:00:04.815Z,36.68
2018-06-29T09:02:34.221Z,36.75
2018-06-29T09:05:04.414Z,36.95
2018-06-29T09:07:34.314Z,37.10
2018-06-29T09:10:03.247Z,37.46
2018-06-29T09:12:32.369Z,36.19
2018-06-29T09:15:01.982Z,37.03
2018-06-29T09:17:31.607Z,37.48
2018-06-29T09:20:00.764Z,37.20
2018-06-29T09:22:29.603Z,35.75
2018-06-29T09:24:58.443Z,36.17
2018-06-29T09:27:27.309Z,36.31
2018-06-29T09:29:57.311Z,34.93
2018-06-29T09:32:26.770Z,35.99
2018-06-29T09:34:55.575Z,36.08
2018-06-29T09:37:24.480Z,35.97
2018-06-29T09:39:53.278Z,34.65
2018-06-29T09:42:22.060Z,35.56
2018-06-29T09:44:51.044Z,35.69
2018-06-29T09:47:19.927Z,35.52
2018-06-29T09:49:48.729Z,35.08
2018-06-29T09:52:17.525Z,35.77
2018-06-29T09:54:46.373Z,34.67
2018-06-29T09:57:16.140Z,36.03
2018-06-29T09:59:44.909Z,34.59
2018-06-29T10:02:13.942Z,34.97
2018-06-29T10:04:43.666Z,33.98
2018-06-29T10:07:13.452Z,34.50
2018-06-29T10:09:43.113Z,34.17
2018-06-29T10:12:11.974Z,34.15
2018-06-29T10:14:41.759Z,34.33
2018-06-29T10:17:11.294Z,33.86
2018-06-29T10:19:40.113Z,33.33
2018-06-29T10:22:08.899Z,33.13
2018-06-29T10:24:37.798Z,33.40
2018-06-29T10:27:06.583Z,33.29
2018-06-29T10:29:36.204Z,32.07
2018-06-29T10:32:05.744Z,32.79
2018-06-29T10:34:34.745Z,30.51
2018-06-29T10:37:04.462Z,31.88
2018-06-29T10:39:33.438Z,32.49
2018-06-29T10:42:02.888Z,33.48
2018-06-29T10:44:32.805Z,33.22
2018-06-29T10:47:01.595Z,33.78
2018-06-29T10:49:30.534Z,33.39
2018-06-29T10:51:59.290Z,33.22
2018-06-29T10:54:28.110Z,33.12
2018-06-29T10:56:57.728Z,32.81
2018-06-29T10:59:26.490Z,32.58
2018-06-29T11:01:55.284Z,32.11
2018-06-29T11:04:24.605Z,32.67
2018-06-29T11:06:54.141Z,31.80
2018-06-29T11:09:23.641Z,30.81
2018-06-29T11:11:52.431Z,30.49
2018-06-29T11:14:22.274Z,30.34
2018-06-29T11:16:51.886Z,31.72
2018-06-29T11:19:20.667Z,32.40
2018-06-29T11:21:49.403Z,31.95
2018-06-29T11:24:18.211Z,31.90
2018-06-29T11:26:47.919Z,33.06
2018-06-29T11:29:16.923Z,31.85
2018-06-29T11:31:46.830Z,32.18
2018-06-29T11:34:15.614Z,32.76
2018-06-29T11:36:44.389Z,31.65
2018-06-29T11:39:14.661Z,31.20
2018-06-29T11:41:43.915Z,30.45
2018-06-29T11:44:13.653Z,30.68
2018-06-29T11:46:42.399Z,30.25
2018-06-29T11:49:11.239Z,30.53
2018-06-29T11:51:40.085Z,30.02
2018-06-29T11:54:09.242Z,31.49
2018-06-29T11:56:39.083Z,30.34
2018-06-29T11:59:07.864Z,30.61
2018-06-29T12:01:36.696Z,31.21
2018-06-29T12:04:05.675Z,31.54
2018-06-29T12:06:36.723Z,31.50
2018-06-29T12:09:09.178Z,30.76
2018-06-29T12:11:37.960Z,30.94
2018-06-29T12:14:07.503Z,31.88
2018-06-29T12:16:37.242Z,31.17
2018-06-29T12:19:06.033Z,30.98
2018-06-29T12:21:35.190Z,30.87
2018-06-29T12:24:04.228Z,30.73
2018-06-29T12:26:34.217Z,30.12
2018-06-29T12:29:03.340Z,31.03
2018-06-29T12:31:32.891Z,31.56
2018-06-29T12:34:01.712Z,30.76
2018-06-29T12:36:30.512Z,31.00
2018-06-29T12:38:59.340Z,30.33
2018-06-29T12:41:28.176Z,29.43
2018-06-29T12:43:57.170Z,30.01
2018-06-29T12:46:25.939Z,30.20
2018-06-29T12:48:54.701Z,30.25
2018-06-29T12:51:23.492Z,29.36
2018-06-29T12:53:52.810Z,29.36
2018-06-29T12:56:21.977Z,29.77
2018-06-29T12:58:50.775Z,30.54
2018-06-29T13:01:19.530Z,28.08
2018-06-29T13:03:48.352Z,28.71
2018-06-29T13:06:18.245Z,28.17
2018-06-29T13:08:48.065Z,28.43
2018-06-29T13:11:17.530Z,29.20
2018-06-29T13:13:47.070Z,29.74
2018-06-29T13:16:16.782Z,30.04
2018-06-29T13:18:46.145Z,29.66
2018-06-29T13:21:15.186Z,29.06
2018-06-29T13:23:44.651Z,29.48
2018-06-29T13:26:13.532Z,30.15
2018-06-29T13:28:42.271Z,30.74
2018-06-29T13:31:11.779Z,30.16
2018-06-29T13:33:40.658Z,30.19
2018-06-29T13:36:09.456Z,31.22
2018-06-29T13:38:38.282Z,29.45
2018-06-29T13:41:07.243Z,29.84
2018-06-29T13:43:36.266Z,29.80
2018-06-29T13:46:05.577Z,30.07
2018-06-29T13:48:34.728Z,29.48
2018-06-29T13:51:03.769Z,30.91
2018-06-29T13:53:32.827Z,30.08
2018-06-29T13:56:02.449Z,30.89
2018-06-29T13:58:31.283Z,29.97
2018-06-29T14:01:00.208Z,29.75
2018-06-29T14:03:29.084Z,30.05
2018-06-29T14:05:58.398Z,30.13
2018-06-29T14:08:27.785Z,30.11
2018-06-29T14:10:56.605Z,30.75
2018-06-29T14:13:25.362Z,30.42
2018-06-29T14:15:54.879Z,30.82
2018-06-29T14:18:24.537Z,30.49
2018-06-29T14:20:54.094Z,30.84
2018-06-29T14:23:22.875Z,30.52
2018-06-29T14:25:51.603Z,30.37
2018-06-29T14:28:20.407Z,30.32
2018-06-29T14:30:50.058Z,30.09
2018-06-29T14:33:18.915Z,30.35
2018-06-29T14:35:47.724Z,29.82
2018-06-29T14:38:16.558Z,29.68
2018-06-29T14:40:45.295Z,29.94
2018-06-29T14:43:14.475Z,30.30
2018-06-29T14:45:43.362Z,30.62
2018-06-29T14:48:12.195Z,30.62
2018-06-29T14:50:40.950Z,30.62
2018-06-29T14:53:09.787Z,30.64
2018-06-29T14:55:39.819Z,28.46
2018-06-29T14:58:08.587Z,29.24
2018-06-29T15:00:37.331Z,28.64
2018-06-29T15:03:06.323Z,29.07
2018-06-29T15:05:35.831Z,29.19
2018-06-29T15:08:05.677Z,29.57
2018-06-29T15:10:35.471Z,29.02
2018-06-29T15:13:04.596Z,29.65
2018-06-29T15:15:34.139Z,28.91
2018-06-29T15:18:04.468Z,27.95
2018-06-29T15:20:33.378Z,29.19
2018-06-29T15:23:02.356Z,28.80
2018-06-29T15:25:31.179Z,27.72
2018-06-29T15:27:59.967Z,27.21
2018-06-29T15:30:29.493Z,27.52
2018-06-29T15:32:58.274Z,27.93
2018-06-29T15:35:27.062Z,27.62
2018-06-29T15:37:55.852Z,27.00
2018-06-29T15:40:24.661Z,26.06
2018-06-29T15:42:53.540Z,25.38
2018-06-29T15:45:22.407Z,25.44
2018-06-29T15:47:51.156Z,23.75
2018-06-29T15:50:19.920Z,24.55
2018-06-29T15:52:48.754Z,23.93
2018-06-29T15:55:18.654Z,25.76
2018-06-29T15:57:47.438Z,26.72
2018-06-29T16:00:16.511Z,26.93
2018-06-29T16:02:45.302Z,27.08
2018-06-29T16:05:16.294Z,26.02
2018-06-29T16:07:45.564Z,24.81
2018-06-29T16:10:14.347Z,26.54
2018-06-29T16:12:43.100Z,27.46
2018-06-29T16:15:12.763Z,26.73
2018-06-29T16:17:41.956Z,26.37
2018-06-29T16:20:10.885Z,25.48
2018-06-29T16:22:39.690Z,24.01
2018-06-29T16:25:08.614Z,22.66
2018-06-29T16:27:37.371Z,21.37
2018-06-29T16:30:07.499Z,20.38
2018-06-29T16:32:36.398Z,21.39
2018-06-29T16:35:07.062Z,21.63
2018-06-29T16:37:36.085Z,20.23
2018-06-29T16:40:05.931Z,20.58
2018-06-29T16:42:35.114Z,21.03
2018-06-29T16:45:04.471Z,20.74
2018-06-29T16:47:33.344Z,22.43
2018-06-29T16:50:02.166Z,22.96
2018-06-29T16:52:31.176Z,23.81
2018-06-29T16:54:59.923Z,24.54
2018-06-29T16:57:29.558Z,25.50
2018-06-29T16:59:58.290Z,23.35
2018-06-29T17:02:27.117Z,23.57
2018-06-29T17:04:56.550Z,21.64
2018-06-29T17:07:25.972Z,21.39
2018-06-29T17:09:54.840Z,20.53
2018-06-29T17:12:24.520Z,19.80
2018-06-29T17:14:54.058Z,20.22
2018-06-29T17:17:23.618Z,19.34
2018-06-29T17:19:52.405Z,20.48
2018-06-29T17:22:21.246Z,19.67
2018-06-29T17:24:50.069Z,19.87
2018-06-29T17:27:18.850Z,19.08
2018-06-29T17:29:47.790Z,18.87
2018-06-29T17:32:17.098Z,20.03
2018-06-29T17:34:45.878Z,19.83
2018-06-29T17:37:14.771Z,18.96
2018-06-29T17:39:43.700Z,18.81
2018-06-29T17:42:12.507Z,20.05
2018-06-29T17:44:41.706Z,19.39
2018-06-29T17:47:10.506Z,19.98
2018-06-29T17:49:39.265Z,21.43
2018-06-29T17:52:08.144Z,21.49
2018-06-29T17:54:37.511Z,21.60
2018-06-29T17:57:07.322Z,20.53
2018-06-29T17:59:36.420Z,21.49
2018-06-29T18:02:05.557Z,21.13
2018-06-29T18:04:35.401Z,20.64
2018-06-29T18:07:05.431Z,20.22
2018-06-29T18:09:34.204Z,20.80
2018-06-29T18:12:03.685Z,20.78
2018-06-29T18:14:33.242Z,20.33
2018-06-29T18:17:02.942Z,20.37
2018-06-29T18:19:31.706Z,20.87
2018-06-29T18:22:00.491Z,21.57
2018-06-29T18:24:29.288Z,21.87
2018-06-29T18:26:58.239Z,21.45
2018-06-29T18:29:27.145Z,21.62
2018-06-29T18:31:56.630Z,22.62
2018-06-29T18:34:25.431Z,22.27
2018-06-29T18:36:54.339Z,21.64
2018-06-29T18:39:23.128Z,22.45
2018-06-29T18:41:52.461Z,22.20
2018-06-29T18:44:21.366Z,24.12
2018-06-29T18:46:50.447Z,25.04
2018-06-29T18:49:19.251Z,25.13
2018-06-29T18:51:48.098Z,26.16
2018-06-29T18:54:16.872Z,27.69
2018-06-29T18:56:46.914Z,28.29
2018-06-29T18:59:16.375Z,29.27
2018-06-29T19:01:45.849Z,29.77
2018-06-29T19:04:14.797Z,30.68
2018-06-29T19:06:44.276Z,30.10
2018-06-29T19:09:13.786Z,30.64
2018-06-29T19:11:42.539Z,30.98
2018-06-29T19:14:11.986Z,31.40
2018-06-29T19:16:41.710Z,31.05
2018-06-29T19:19:10.499Z,31.79
2018-06-29T19:21:39.236Z,32.51
2018-06-29T19:24:08.359Z,32.05
2018-06-29T19:26:37.279Z,33.04
2018-06-29T19:29:06.702Z,32.42
2018-06-29T19:31:36.847Z,33.23
2018-06-29T19:34:06.067Z,33.72
2018-06-29T19:36:35.105Z,33.33
2018-06-29T19:39:05.628Z,35.12
2018-06-29T19:41:34.688Z,34.49
2018-06-29T19:44:03.601Z,34.44
2018-06-29T19:46:32.391Z,34.09
2018-06-29T19:49:01.114Z,34.61
2018-06-29T19:51:29.936Z,35.27
2018-06-29T19:53:58.767Z,35.37
2018-06-29T19:56:28.390Z,35.31
2018-06-29T19:58:57.222Z,36.07
2018-06-29T20:01:26.582Z,36.08
2018-06-29T20:03:56.002Z,36.55
2018-06-29T20:06:25.789Z,36.27
2018-06-29T20:08:55.300Z,38.13
2018-06-29T20:11:24.237Z,36.98
2018-06-29T20:13:54.272Z,38.11
2018-06-29T20:16:23.665Z,37.49
2018-06-29T20:18:52.962Z,39.33
2018-06-29T20:21:21.769Z,37.81
2018-06-29T20:23:50.550Z,38.73
2018-06-29T20:26:19.346Z,39.67
2018-06-29T20:28:48.110Z,40.24
2018-06-29T20:31:17.862Z,40.54
2018-06-29T20:33:46.641Z,41.35
2018-06-29T20:36:15.503Z,42.72
2018-06-29T20:38:44.332Z,43.02
2018-06-29T20:41:13.081Z,42.05
2018-06-29T20:43:42.030Z,42.70
2018-06-29T20:46:11.201Z,44.09
2018-06-29T20:48:41.005Z,44.00
2018-06-29T20:51:09.784Z,44.30
2018-06-29T20:53:39.281Z,45.86
2018-06-29T20:56:09.293Z,45.07
2018-06-29T20:58:38.277Z,45.32
2018-06-29T21:01:08.119Z,44.95
2018-06-29T21:03:37.677Z,45.12
2018-06-29T21:06:07.810Z,45.71
2018-06-29T21:08:37.802Z,46.44
2018-06-29T21:11:07.028Z,47.22
2018-06-29T21:13:35.878Z,47.37
2018-06-29T21:16:06.662Z,48.89
2018-06-29T21:18:36.331Z,48.65
2018-06-29T21:21:05.898Z,48.26
2018-06-29T21:23:34.929Z,48.16
2018-06-29T21:26:03.770Z,50.01
2018-06-29T21:28:32.507Z,48.29
2018-06-29T21:31:02.161Z,50.05
2018-06-29T21:33:30.966Z,49.21
2018-06-29T21:35:59.706Z,49.95
2018-06-29T21:38:28.530Z,49.40
2018-06-29T21:40:57.293Z,49.14
2018-06-29T21:43:26.194Z,51.12
2018-06-29T21:45:55.931Z,50.66
2018-06-29T21:48:24.698Z,50.30
2018-06-29T21:50:53.486Z,50.52
2018-06-29T21:53:22.264Z,51.44
2018-06-29T21:55:52.116Z,51.46
2018-06-29T21:58:20.878Z,50.81
2018-06-29T22:00:50.559Z,51.66
2018-06-29T22:03:19.407Z,52.34
2018-06-29T22:05:49.088Z,50.98
2018-06-29T22:08:18.686Z,52.48
2018-06-29T22:10:47.394Z,50.87
2018-06-29T22:13:16.211Z,52.05
2018-06-29T22:15:45.854Z,52.40
2018-06-29T22:18:15.755Z,52.74
2018-06-29T22:20:44.572Z,53.01
2018-06-29T22:23:13.383Z,53.03
2018-06-29T22:25:42.211Z,53.27
2018-06-29T22:28:11.674Z,52.50
2018-06-29T22:30:41.160Z,51.80
2018-06-29T22:33:09.896Z,52.82
2018-06-29T22:35:38.641Z,53.34
2018-06-29T22:38:08.782Z,52.49
2018-06-29T22:40:38.466Z,52.20
2018-06-29T22:43:08.591Z,52.45
2018-06-29T22:45:38.435Z,52.95
2018-06-29T22:48:08.937Z,52.65
2018-06-29T22:50:37.886Z,53.47
2018-06-29T22:53:07.330Z,54.29
2018-06-29T22:55:37.498Z,53.91
2018-06-29T22:58:08.301Z,53.67
2018-06-29T23:00:38.416Z,54.41
2018-06-29T23:03:10.438Z,54.31
2018-06-29T23:05:40.070Z,53.34
2018-06-29T23:08:11.397Z,54.45
2018-06-29T23:10:40.426Z,56.27
2018-06-29T23:13:09.942Z,57.04
2018-06-29T23:15:39.259Z,55.85
2018-06-29T23:18:09.686Z,56.42
2018-06-29T23:20:38.440Z,56.88
2018-06-29T23:23:08.798Z,57.29
2018-06-29T23:25:38.049Z,57.13
2018-06-29T23:28:07.573Z,57.48
2018-06-29T23:30:37.758Z,57.57
2018-06-29T23:33:07.140Z,57.36
2018-06-29T23:35:38.060Z,57.98
2018-06-29T23:38:08.140Z,58.19
2018-06-29T23:40:37.466Z,58.18
2018-06-29T23:43:08.116Z,59.59
2018-06-29T23:45:37.245Z,58.80
2018-06-29T23:48:06.770Z,59.25
2018-06-29T23:50:35.803Z,59.27
2018-06-29T23:53:04.742Z,60.06
2018-06-29T23:55:34.849Z,60.37
2018-06-29T23:58:03.727Z,60.70
